Ischia Jet — IOBI — position and weather

sailwx.info

Track history (hours):
 
Tides and Currents Weather Stations Pressure Air Temp Water Temp Dewpoint Dewpoint Depression Visibility Wind Speed Wind Dir Waves Ship Positions

Ischia Jet

Last reported at 2016-Apr-29 15:33 UTC. Time now 2016-May-01 06:10 UTC.
Position N 40°42' E 014°17'.

Length 42 m; draft 1.2 m.

Type: Passenger vessel. MMSI: 247048700.

Date/timePositionNaut miles runAvg speedWind from/ knotsBaromVisibWave heightAir tempDewpointWater temp
2016-Apr-29 15:33N 40°42' E 014°17'7 7.5
2016-Apr-29 14:33N 40°34' E 014°16'2 1.6
2016-Apr-29 13:30N 40°33' E 014°14'1 0.6
2016-Apr-29 12:33N 40°34' E 014°14'8 6.6
2016-Apr-29 11:17N 40°42' E 014°17'7 8.6
2016-Apr-29 10:26N 40°49' E 014°17'1618.5
2016-Apr-29 09:33N 40°33' E 014°14'0 0.1
2016-Apr-29 08:33N 40°33' E 014°15'16 0.9
2016-Apr-28 15:24N 40°49' E 014°17'1619.3
2016-Apr-28 14:33N 40°33' E 014°14'0 0.0
2016-Apr-28 13:31N 40°33' E 014°14'0 0.0
2016-Apr-28 12:33N 40°33' E 014°14'0 0.0
2016-Apr-28 11:33N 40°33' E 014°14'5 5.1
2016-Apr-28 10:33N 40°38' E 014°17'12 0.5
2016-Apr-27 11:23N 40°51' E 014°16'0 0.0
2016-Apr-27 10:33N 40°51' E 014°16'0 0.0
2016-Apr-27 09:17N 40°51' E 014°16'1520.8
2016-Apr-27 08:33N 40°36' E 014°16'7 6.8
2016-Apr-27 07:31N 40°35' E 014°25'5 0.3
2016-Apr-26 15:33N 40°34' E 014°19'2 2.5
2016-Apr-26 14:34N 40°36' E 014°19'4 4.3
2016-Apr-26 13:33N 40°33' E 014°14'0 0.0
2016-Apr-26 12:33N 40°33' E 014°14'2 2.1
2016-Apr-26 11:33N 40°35' E 014°16'1512.3
2016-Apr-26 10:22N 40°50' E 014°16'1720.6
2016-Apr-26 09:33N 40°33' E 014°14'0 0.0
2016-Apr-26 08:32N 40°33' E 014°14'10 9.9
2016-Apr-26 07:33N 40°36' E 014°27'  
2016-Apr-22 16:12N 40°36' E 014°32'811.6
2016-Apr-22 15:33N 40°34' E 014°22'5 4.9
2016-Apr-22 14:33N 40°34' E 014°16'1 1.2
2016-Apr-22 13:33N 40°33' E 014°14'1313.1
2016-Apr-22 12:33N 40°46' E 014°17'2 0.4
2016-Apr-22 08:33N 40°45' E 014°17'1211.3
2016-Apr-22 07:29N 40°36' E 014°27'5 0.3
2016-Apr-21 15:32N 40°34' E 014°20'4 4.3
2016-Apr-21 14:33N 40°34' E 014°15'0 0.4
2016-Apr-21 13:33N 40°33' E 014°14'0 0.4
2016-Apr-21 12:32N 40°34' E 014°15'0 0.4
2016-Apr-21 11:33N 40°33' E 014°14'1714.1
2016-Apr-21 10:22N 40°50' E 014°16'1719.8
2016-Apr-21 09:31N 40°33' E 014°14'0 0.0
2016-Apr-21 08:33N 40°33' E 014°14'13 0.8
2016-Apr-20 16:13N 40°36' E 014°32'913.5
2016-Apr-20 15:33N 40°34' E 014°20'4 4.2
2016-Apr-20 14:33N 40°38' E 014°23'5 5.3
2016-Apr-20 13:34N 40°41' E 014°17'9 2.1
2016-Apr-20 09:06N 40°50' E 014°16'1120.6
2016-Apr-20 08:33N 40°39' E 014°16'9 9.0
2016-Apr-20 07:30N 40°37' E 014°28'1 0.1
2016-Apr-19 16:11N 40°37' E 014°30'914.6
2016-Apr-19 15:33N 40°34' E 014°19'  
Track history (hours):
 
Tides and Currents Weather Stations Pressure Air Temp Water Temp Dewpoint Dewpoint Depression Visibility Wind Speed Wind Dir Waves Ship Positions

Ischia Jet

Last reported at 2016-Apr-29 15:33 UTC. Time now 2016-May-01 06:10 UTC.
Position N 40°42' E 014°17'.

Length 42 m; draft 1.2 m.

Type: Passenger vessel. MMSI: 247048700.

Date/timePositionNaut miles runAvg speedWind from/ knotsBaromVisibWave heightAir tempDewpointWater temp
2016-Apr-29 15:33N 40°42' E 014°17'7 7.5
2016-Apr-29 14:33N 40°34' E 014°16'2 1.6
2016-Apr-29 13:30N 40°33' E 014°14'1 0.6
2016-Apr-29 12:33N 40°34' E 014°14'8 6.6
2016-Apr-29 11:17N 40°42' E 014°17'7 8.6
2016-Apr-29 10:26N 40°49' E 014°17'1618.5
2016-Apr-29 09:33N 40°33' E 014°14'0 0.1
2016-Apr-29 08:33N 40°33' E 014°15'16 0.9
2016-Apr-28 15:24N 40°49' E 014°17'1619.3
2016-Apr-28 14:33N 40°33' E 014°14'0 0.0
2016-Apr-28 13:31N 40°33' E 014°14'0 0.0
2016-Apr-28 12:33N 40°33' E 014°14'0 0.0
2016-Apr-28 11:33N 40°33' E 014°14'5 5.1
2016-Apr-28 10:33N 40°38' E 014°17'12 0.5
2016-Apr-27 11:23N 40°51' E 014°16'0 0.0
2016-Apr-27 10:33N 40°51' E 014°16'0 0.0
2016-Apr-27 09:17N 40°51' E 014°16'1520.8
2016-Apr-27 08:33N 40°36' E 014°16'7 6.8
2016-Apr-27 07:31N 40°35' E 014°25'5 0.3
2016-Apr-26 15:33N 40°34' E 014°19'2 2.5
2016-Apr-26 14:34N 40°36' E 014°19'4 4.3
2016-Apr-26 13:33N 40°33' E 014°14'0 0.0
2016-Apr-26 12:33N 40°33' E 014°14'2 2.1
2016-Apr-26 11:33N 40°35' E 014°16'1512.3
2016-Apr-26 10:22N 40°50' E 014°16'1720.6
2016-Apr-26 09:33N 40°33' E 014°14'0 0.0
2016-Apr-26 08:32N 40°33' E 014°14'10 9.9
2016-Apr-26 07:33N 40°36' E 014°27'  
2016-Apr-22 16:12N 40°36' E 014°32'811.6
2016-Apr-22 15:33N 40°34' E 014°22'5 4.9
2016-Apr-22 14:33N 40°34' E 014°16'1 1.2
2016-Apr-22 13:33N 40°33' E 014°14'1313.1
2016-Apr-22 12:33N 40°46' E 014°17'2 0.4
2016-Apr-22 08:33N 40°45' E 014°17'1211.3
2016-Apr-22 07:29N 40°36' E 014°27'5 0.3
2016-Apr-21 15:32N 40°34' E 014°20'4 4.3
2016-Apr-21 14:33N 40°34' E 014°15'0 0.4
2016-Apr-21 13:33N 40°33' E 014°14'0 0.4
2016-Apr-21 12:32N 40°34' E 014°15'0 0.4
2016-Apr-21 11:33N 40°33' E 014°14'1714.1
2016-Apr-21 10:22N 40°50' E 014°16'1719.8
2016-Apr-21 09:31N 40°33' E 014°14'0 0.0
2016-Apr-21 08:33N 40°33' E 014°14'13 0.8
2016-Apr-20 16:13N 40°36' E 014°32'913.5
2016-Apr-20 15:33N 40°34' E 014°20'4 4.2
2016-Apr-20 14:33N 40°38' E 014°23'5 5.3
2016-Apr-20 13:34N 40°41' E 014°17'9 2.1
2016-Apr-20 09:06N 40°50' E 014°16'1120.6
2016-Apr-20 08:33N 40°39' E 014°16'9 9.0
2016-Apr-20 07:30N 40°37' E 014°28'1 0.1
2016-Apr-19 16:11N 40°37' E 014°30'914.6
2016-Apr-19 15:33N 40°34' E 014°19'  

Dump ship's entire track history